Latest Coastal Weather Observations for Hogan Island

IDT60701

Issued at 12:32 am EST Thursday 1 September 2016 (issued every 10 minutes, with the page automatically refreshed every 10 minutes)

About coastal observations | Map of coastal stations | Coastal observations for TAS | Marine services | Other Formats
Station Details ID: 200838 Name: HOGAN ISLAND Lat: -39.22 Lon: 146.98 Height: 116.0 m
Data from the previous 72 hours. | See also: Recent months at Hogan Island
Date/Time
EST
Temp
°C
Wind Pressure Rain since
9am
mm
Weather Cloud Vis
km
Sea
Height
m
Swell
Dir  Spd
kts
Gust
kts
hPa Trend Height
m
Period
s
Dir
01/12:30am 11.4 W 21 25 1014.4 - 0.4 - - - - - - -
01/12:00am 11.3 WNW 23 26 1014.3 - 0.4 - - - - - - -
 
Date/Time
EST
Temp
°C
Wind Pressure Rain since
9am
mm
Weather Cloud Vis
km
Sea
Height
m
Swell
Dir  Spd
kts
Gust
kts
hPa Trend Height
m
Period
s
Dir
31/11:30pm 11.4 W 25 28 1014.0 - 0.4 - - - - - - -
31/11:00pm 11.1 W 27 32 1013.8 - 0.4 - - - - - - -
31/10:30pm 11.7 W 27 32 1013.8 - 0.2 - - - - - - -
31/10:00pm 11.7 WNW 27 31 1013.6 - 0.2 - - - - - - -
31/09:30pm 11.8 W 30 34 1013.4 - 0.2 - - - - - - -
31/09:00pm 12.0 W 28 32 1013.3 - 0.2 - - - - - - -
31/08:30pm 12.0 W 28 32 1013.1 - 0.2 - - - - - - -
31/08:00pm 11.9 WNW 26 31 1012.9 - 0.2 - - - - - - -
31/07:30pm 11.9 W 27 33 1012.6 - 0.2 - - - - - - -
31/07:00pm 11.9 W 28 32 1012.2 - 0.2 - - - - - - -
31/06:30pm 11.9 W 28 33 1011.9 - 0.2 - - - - - - -
31/06:00pm 11.9 W 30 34 1011.8 - 0.2 - - - - - - -
31/05:30pm 12.1 W 27 31 1011.3 - 0.2 - - - - - - -
31/05:00pm 12.9 W 27 31 1011.2 - 0.2 - - - - - - -
31/04:30pm 13.3 W 25 28 1011.0 - 0.2 - - - - - - -
31/04:00pm 13.4 W 22 25 1010.9 - 0.2 - - - - - - -
31/03:30pm 13.5 W 25 29 1010.5 - 0.2 - - - - - - -
31/03:00pm 13.6 W 26 29 1010.4 - 0.2 - - - - - - -
31/02:30pm 14.1 W 25 30 1010.4 - 0.2 - - - - - - -
31/02:00pm 13.6 W 23 26 1010.5 - 0.2 - - - - - - -
31/01:30pm 13.6 W 24 28 1010.5 - 0.2 - - - - - - -
31/01:00pm 13.0 W 27 30 1010.6 - 0.2 - - - - - - -
31/12:30pm 13.4 W 20 23 1011.0 - 0.2 - - - - - - -
31/12:00pm 13.4 W 19 24 1011.5 - 0.2 - - - - - - -
31/11:30am 13.5 W 22 29 1011.6 - 0.2 - - - - - - -
31/11:26am 13.7 W 19 28 1011.7 - 0.2 - - - - - - -
31/11:00am 14.2 WNW 14 17 1011.9 - 0.2 - - - - - - -
31/10:30am 14.0 NW 14 16 1011.9 - 0.2 - - - - - - -
31/10:00am 13.2 NW 14 16 1012.0 - 0.0 - - - - - - -
31/09:30am 13.6 NW 15 17 1012.0 - 0.0 - - - - - - -
31/09:00am 13.0 NW 15 19 1012.2 - 2.6 - - - - - - -
31/08:30am 12.8 NNW 13 16 1012.0 - 2.6 - - - - - - -
31/08:00am 12.8 NNW 13 15 1011.8 - 2.6 - - - - - - -
31/07:30am 11.9 N 11 14 1012.0 - 2.6 - - - - - - -
31/07:00am 12.4 N 11 15 1011.8 - 2.6 - - - - - - -
31/06:30am 12.1 N 12 15 1011.6 - 2.6 - - - - - - -
31/06:00am 12.2 N 11 13 1011.7 - 2.6 - - - - - - -
31/05:30am 11.9 N 12 14 1011.6 - 2.6 - - - - - - -
31/05:00am 12.5 N 11 14 1011.5 - 2.6 - - - - - - -
31/04:30am 12.4 N 13 16 1011.4 - 2.6 - - - - - - -
31/04:00am 11.6 N 11 14 1011.5 - 2.6 - - - - - - -
31/03:30am 11.5 N 12 15 1011.8 - 2.6 - - - - - - -
31/03:00am 11.4 N 10 13 1011.7 - 2.6 - - - - - - -
31/02:30am 11.5 N 14 17 1012.4 - 2.4 - - - - - - -
31/02:00am 11.4 N 17 21 1012.4 - 2.2 - - - - - - -
31/01:30am 11.5 N 19 23 1013.0 - 1.2 - - - - - - -
31/01:00am 11.9 N 21 26 1013.0 - 0.4 - - - - - - -
31/12:30am 12.3 NNE 19 23 1012.9 - 0.4 - - - - - - -
31/12:00am 12.4 NNE 19 25 1013.2 - 0.4 - - - - - - -
 
Date/Time
EST
Temp
°C
Wind Pressure Rain since
9am
mm
Weather Cloud Vis
km
Sea
Height
m
Swell
Dir  Spd
kts
Gust
kts
hPa Trend Height
m
Period
s
Dir
30/11:30pm 12.5 NNE 21 25 1013.3 - 0.4 - - - - - - -
30/11:00pm 12.7 NE 20 24 1013.8 - 0.4 - - - - - - -
30/10:30pm 12.7 NE 23 27 1014.0 - 0.4 - - - - - - -
30/10:00pm 12.6 NE 23 28 1014.4 - 0.4 - - - - - - -
30/09:30pm 12.6 NE 22 27 1014.6 - 0.4 - - - - - - -
30/09:00pm 12.4 NE 20 24 1015.1 - 0.4 - - - - - - -
30/08:30pm 12.2 NE 20 24 1015.1 - 0.2 - - - - - - -
30/08:00pm 12.3 NE 19 22 1015.4 - 0.2 - - - - - - -
30/07:30pm 12.3 NE 18 21 1015.7 - 0.2 - - - - - - -
30/07:00pm 12.4 NE 17 20 1015.9 - 0.2 - - - - - - -
30/06:30pm 12.1 NE 16 19 1016.0 - 0.2 - - - - - - -
30/06:00pm 11.8 NE 16 19 1016.1 - 0.2 - - - - - - -
30/05:30pm 12.0 NE 17 21 1016.6 - 0.2 - - - - - - -
30/05:00pm 11.6 NNE 15 19 1016.9 - 0.2 - - - - - - -
30/04:30pm 11.5 NNE 14 18 1017.5 - 0.2 - - - - - - -
30/04:00pm 11.7 NE 10 13 1017.5 - 0.0 - - - - - - -
30/03:30pm 11.5 NE 8 10 1017.4 - 0.0 - - - - - - -
30/03:00pm 11.6 N 9 11 1018.1 - 0.0 - - - - - - -
30/02:30pm 11.9 N 11 13 1018.3 - 0.0 - - - - - - -
30/02:00pm 12.4 NNE 11 14 1018.2 - 0.0 - - - - - - -
30/01:30pm 12.5 N 12 15 1018.6 - 0.0 - - - - - - -
30/01:00pm 12.1 NNE 12 14 1018.9 - 0.0 - - - - - - -
30/12:30pm 12.0 N 11 13 1019.1 - 0.0 - - - - - - -
30/12:00pm 12.0 N 12 14 1019.6 - 0.0 - - - - - - -
30/11:30am 12.7 NNE 13 15 1019.7 - 0.0 - - - - - - -
30/11:00am 12.5 NNE 14 17 1020.2 - 0.0 - - - - - - -
30/10:30am 12.7 NE 7 9 1020.3 - 0.0 - - - - - - -
30/10:00am 12.4 NNE 11 14 1020.9 - 0.0 - - - - - - -
30/09:30am 11.9 NNE 14 16 1021.1 - 0.0 - - - - - - -
30/09:00am 11.7 NNE 14 16 1021.2 - 0.0 - - - - - - -
30/08:30am 11.6 NE 12 14 1021.1 - 0.0 - - - - - - -
30/08:00am 11.7 NE 12 14 1021.6 - 0.0 - - - - - - -
30/07:30am 11.6 NE 14 16 1022.1 - 0.0 - - - - - - -
30/07:00am 11.8 NE 13 15 1021.6 - 0.0 - - - - - - -
30/06:30am 11.8 ENE 15 16 1021.6 - 0.0 - - - - - - -
30/06:00am 11.9 E 17 19 1021.4 - 0.0 - - - - - - -
30/05:30am 11.8 ENE 17 20 1021.4 - 0.0 - - - - - - -
30/05:00am 12.0 ENE 19 22 1021.2 - 0.0 - - - - - - -
30/04:30am 12.1 ENE 19 23 1021.3 - 0.0 - - - - - - -
30/04:00am 12.1 ENE 20 24 1021.2 - 0.0 - - - - - - -
30/03:30am 11.9 ENE 19 24 1021.6 - 0.0 - - - - - - -
30/03:00am 12.0 E 18 22 1021.7 - 0.0 - - - - - - -
30/02:30am 11.8 E 16 19 1022.0 - 0.0 - - - - - - -
30/02:00am 11.4 ENE 15 17 1022.4 - 0.0 - - - - - - -
30/01:30am 10.8 ENE 13 15 1022.9 - 0.0 - - - - - - -
30/01:00am 10.9 ENE 12 13 1023.3 - 0.0 - - - - - - -
30/12:30am 10.8 ENE 12 13 1023.5 - 0.0 - - - - - - -
30/12:00am 10.8 ENE 12 14 1024.0 - 0.0 - - - - - - -
 
Date/Time
EST
Temp
°C
Wind Pressure Rain since
9am
mm
Weather Cloud Vis
km
Sea
Height
m
Swell
Dir  Spd
kts
Gust
kts
hPa Trend Height
m
Period
s
Dir
29/11:30pm 10.7 ENE 12 13 1024.1 - 0.0 - - - - - - -
29/11:00pm 10.9 NE 13 15 1024.2 - 0.0 - - - - - - -
29/10:30pm 10.5 NE 13 15 1024.4 - 0.0 - - - - - - -
29/10:00pm 10.3 ENE 12 14 1024.2 - 0.0 - - - - - - -
29/09:30pm 10.5 ENE 11 11 1024.3 - 0.0 - - - - - - -
29/09:00pm 10.6 ENE 11 13 1024.5 - 0.0 - - - - - - -
29/08:30pm 10.9 E 11 13 1024.0 - 0.0 - - - - - - -
29/08:00pm 10.3 ENE 11 13 1023.8 - 0.0 - - - - - - -
29/07:30pm 10.9 ENE 10 12 1023.7 - 0.0 - - - - - - -
29/07:00pm 10.9 ENE 10 11 1023.7 - 0.0 - - - - - - -
29/06:30pm 10.6 ENE 8 9 1023.5 - 0.0 - - - - - - -
29/06:00pm 11.0 ENE 8 9 1023.7 - 0.0 - - - - - - -
29/05:30pm 11.2 ENE 7 8 1023.4 - 0.0 - - - - - - -
29/05:00pm 12.0 ENE 6 7 1023.4 - 0.0 - - - - - - -
29/04:30pm 12.0 ENE 6 7 1023.2 - 0.0 - - - - - - -
29/04:00pm 12.5 ENE 7 8 1023.1 - 0.0 - - - - - - -
29/03:30pm 12.9 ENE 6 7 1023.2 - 0.0 - - - - - - -
29/03:00pm 13.9 NE 5 7 1023.3 - 0.0 - - - - - - -
29/02:30pm 14.6 NE 5 6 1023.1 - 0.0 - - - - - - -
29/02:00pm 14.6 NNE 5 7 1023.1 - 0.0 - - - - - - -
29/01:30pm 14.4 NNE 7 9 1023.1 - 0.0 - - - - - - -
29/01:00pm 15.7 N 7 9 1023.4 - 0.0 - - - - - - -
29/12:30pm 14.5 N 8 9 1023.8 - 0.0 - - - - - - -
29/12:00pm 14.6 N 9 12 1024.3 - 0.0 - - - - - - -
29/11:30am 14.0 N 9 11 1024.5 - 0.0 - - - - - - -
29/11:00am 13.8 N 10 13 1024.7 - 0.0 - - - - - - -
29/10:30am 13.3 N 10 13 1024.8 - 0.0 - - - - - - -
29/10:00am 13.6 N 11 14 1024.9 - 0.0 - - - - - - -
29/09:30am 12.3 NNE 11 14 1024.9 - 0.0 - - - - - - -
29/09:00am 11.9 NNE 10 12 1025.2 - 0.0 - - - - - - -
29/08:30am 11.5 NNE 9 12 1024.8 - 0.0 - - - - - - -
29/08:00am 10.9 NNE 9 11 1024.7 - 0.0 - - - - - - -
29/07:30am 10.8 NE 8 9 1024.4 - 0.0 - - - - - - -
29/07:00am 9.5 NE 8 9 1024.1 - 0.0 - - - - - - -
29/06:30am 8.9 N 9 10 1023.9 - 0.0 - - - - - - -
29/06:00am 8.8 N 8 9 1023.7 - 0.0 - - - - - - -
29/05:30am 9.0 N 8 9 1023.4 - 0.0 - - - - - - -
29/05:00am 8.7 N 7 8 1023.0 - 0.0 - - - - - - -
29/04:30am 8.7 N 6 8 1022.8 - 0.0 - - - - - - -
29/04:00am 8.6 N 6 6 1022.6 - 0.0 - - - - - - -
29/03:30am 8.7 N 6 7 1022.4 - 0.0 - - - - - - -
29/03:00am 8.9 NNW 5 7 1022.5 - 0.0 - - - - - - -
29/02:30am 9.1 NNW 5 7 1022.5 - 0.0 - - - - - - -
29/02:00am 9.0 NNW 7 9 1022.7 - 0.0 - - - - - - -
29/01:30am 8.9 NW 7 8 1022.8 - 0.0 - - - - - - -
29/01:00am 8.5 NW 6 7 1022.7 - 0.0 - - - - - - -

Other Formats:

Comma delimited format used in spreadsheet applications
http://www.bom.gov.au/fwo/IDT60701/IDT60701.94949.axf

JavaScript Object Notation format (JSON) in row-major order
http://www.bom.gov.au/fwo/IDT60701/IDT60701.94949.json